Time;durP1;ratioP1;P1;durP2;ratioP2;P2;SDS_P1;SDS_P2;PMS_P1;PMS_P2;Temp;Humidity;BMP_temperature;BMP_pressure;BME280_temperature;BME280_humidity;BME280_pressure;Samples;Min_cycle;Max_cycle;Signal;HPM_P1;HPM_P2
2023/01/04 00:00:04;;;;;;;12.00;4.15;;;;;;;6.49;100.00;101820.78;6146228;23;20002;-90
2023/01/04 00:02:30;;;;;;;8.75;3.63;;;;;;;6.46;100.00;101812.88;6150214;23;20141;-91
2023/01/04 00:04:55;;;;;;;10.60;4.10;;;;;;;6.42;100.00;101787.41;6151588;23;20080;-91
2023/01/04 00:07:20;;;;;;;7.93;3.95;;;;;;;6.42;100.00;101797.97;6150440;23;20108;-91
2023/01/04 00:09:46;;;;;;;11.93;4.47;;;;;;;6.35;100.00;101785.75;6150710;23;20005;-90
2023/01/04 00:12:11;;;;;;;9.18;4.50;;;;;;;6.36;100.00;101790.16;6149445;23;20112;-90
2023/01/04 00:14:36;;;;;;;6.93;3.85;;;;;;;6.26;100.00;101767.44;6147938;23;20013;-91
2023/01/04 00:17:02;;;;;;;11.75;4.07;;;;;;;6.40;100.00;101795.38;6149622;23;20005;-94
2023/01/04 00:19:27;;;;;;;18.38;5.18;;;;;;;6.30;100.00;101771.75;6149509;23;20009;-91
2023/01/04 00:21:52;;;;;;;11.25;4.40;;;;;;;6.40;100.00;101781.28;6149330;23;20024;-91
2023/01/04 00:24:18;;;;;;;8.93;4.75;;;;;;;6.34;100.00;101761.09;6148637;23;20076;-92
2023/01/04 00:26:43;;;;;;;10.13;4.30;;;;;;;6.30;100.00;101751.47;6150871;23;20227;-92
2023/01/04 00:29:11;;;;;;;16.02;5.40;;;;;;;6.42;100.00;101763.59;6123524;23;20415;-91
2023/01/04 00:31:37;;;;;;;9.88;4.45;;;;;;;6.35;100.00;101746.09;6149211;23;20027;-91
2023/01/04 00:34:04;;;;;;;8.40;4.93;;;;;;;6.42;100.00;101751.25;6147778;23;20005;-91
2023/01/04 00:36:30;;;;;;;6.97;4.30;;;;;;;6.44;100.00;101746.81;6148815;23;20028;-89
2023/01/04 00:39:06;;;;;;;9.93;4.72;;;;;;;6.44;100.00;101744.16;6148356;23;20423;-91
2023/01/04 00:41:33;;;;;;;10.48;4.80;;;;;;;6.44;100.00;101727.44;6149416;23;20509;-94
2023/01/04 00:44:01;;;;;;;11.10;5.10;;;;;;;6.40;100.00;101721.31;6150728;23;20025;-93
2023/01/04 00:46:27;;;;;;;10.15;5.10;;;;;;;6.41;100.00;101724.84;6150981;23;20037;-92
2023/01/04 00:48:52;;;;;;;10.43;5.80;;;;;;;6.41;100.00;101719.56;6150470;23;20451;-91
2023/01/04 00:51:17;;;;;;;10.77;5.32;;;;;;;6.44;100.00;101716.84;6149185;23;20009;-91
2023/01/04 00:53:43;;;;;;;10.20;4.70;;;;;;;6.45;100.00;101693.00;6122582;23;20435;-92
2023/01/04 00:56:08;;;;;;;9.98;4.95;;;;;;;6.48;100.00;101708.81;6150347;23;20044;-92
2023/01/04 00:58:33;;;;;;;12.60;5.28;;;;;;;6.51;100.00;101707.88;6148338;23;20013;-91
2023/01/04 01:01:04;;;;;;;8.20;4.57;;;;;;;6.50;100.00;101706.13;6149498;23;20201;-93
2023/01/04 01:03:29;;;;;;;9.38;4.38;;;;;;;6.52;100.00;101698.16;6146854;23;20420;-92
2023/01/04 01:05:54;;;;;;;11.07;4.90;;;;;;;6.58;100.00;101692.75;6121679;23;20005;-92
2023/01/04 01:08:25;;;;;;;6.88;4.65;;;;;;;6.57;100.00;101691.03;6148894;23;20037;-94
2023/01/04 01:10:52;;;;;;;6.82;4.38;;;;;;;6.63;100.00;101702.34;6149633;23;20498;-91
2023/01/04 01:13:18;;;;;;;6.25;4.13;;;;;;;6.56;100.00;101678.69;6121598;23;20081;-92
2023/01/04 01:15:43;;;;;;;6.45;4.28;;;;;;;6.64;100.00;101687.31;6148801;23;20051;-92
2023/01/04 01:18:08;;;;;;;10.15;4.07;;;;;;;6.60;100.00;101681.22;6148728;23;20360;-91
2023/01/04 01:20:34;;;;;;;9.55;5.13;;;;;;;6.60;100.00;101681.22;6149031;23;20017;-93
2023/01/04 01:22:59;;;;;;;6.75;3.75;;;;;;;6.70;100.00;101706.59;6151565;23;20004;-94
2023/01/04 01:25:24;;;;;;;9.32;4.30;;;;;;;6.69;100.00;101689.00;6125385;23;20091;-93
2023/01/04 01:27:50;;;;;;;7.82;4.20;;;;;;;6.71;100.00;101684.53;6160198;23;20005;-92
2023/01/04 01:30:15;;;;;;;6.38;4.03;;;;;;;6.78;100.00;101692.34;6170633;23;20056;-91
2023/01/04 01:32:40;;;;;;;8.43;4.15;;;;;;;6.71;100.00;101679.22;6172654;23;20017;-93
2023/01/04 01:35:06;;;;;;;8.73;4.20;;;;;;;6.77;100.00;101686.16;6161703;23;20016;-92
2023/01/04 01:37:31;;;;;;;7.55;4.70;;;;;;;6.77;100.00;101669.41;6160703;23;19989;-92
2023/01/04 01:39:56;;;;;;;7.90;4.35;;;;;;;6.70;100.00;101681.94;6127171;23;20005;-91
2023/01/04 01:42:22;;;;;;;9.00;5.07;;;;;;;6.80;100.00;101672.00;6148849;23;20017;-91
2023/01/04 01:44:57;;;;;;;9.38;4.57;;;;;;;6.79;100.00;101668.50;6149971;23;20005;-90
2023/01/04 01:47:28;;;;;;;11.20;5.03;;;;;;;6.81;100.00;101660.50;6150057;23;20071;-91
2023/01/04 01:49:54;;;;;;;8.95;5.10;;;;;;;6.81;100.00;101669.31;6150446;23;20001;-91
2023/01/04 01:52:34;;;;;;;8.90;5.03;;;;;;;6.83;100.00;101658.72;6149327;23;20028;-90
2023/01/04 01:55:06;;;;;;;10.48;4.80;;;;;;;6.80;100.00;101658.78;6151256;23;20305;-90
2023/01/04 01:57:35;;;;;;;8.98;5.13;;;;;;;6.82;100.00;101644.63;6151340;23;20005;-91
2023/01/04 02:00:08;;;;;;;6.13;4.70;;;;;;;6.86;100.00;101677.19;6152265;23;20028;-90
2023/01/04 02:02:33;;;;;;;8.77;5.03;;;;;;;6.80;100.00;101664.06;6150313;23;20005;-91
2023/01/04 02:05:01;;;;;;;7.22;4.93;;;;;;;6.86;100.00;101670.09;6156936;23;19998;-91
2023/01/04 02:07:27;;;;;;;6.28;4.50;;;;;;;6.78;100.00;101647.38;6159780;23;20001;-90
2023/01/04 02:09:54;;;;;;;5.43;4.82;;;;;;;6.87;100.00;101644.50;6170412;23;20032;-89
2023/01/04 02:12:20;;;;;;;7.13;5.50;;;;;;;6.89;100.00;101648.84;6176350;23;20025;-91
2023/01/04 02:14:49;;;;;;;10.27;5.32;;;;;;;6.90;100.00;101653.25;6174063;23;20018;-89
2023/01/04 02:17:44;;;;;;;10.80;5.72;;;;;;;6.92;100.00;101639.97;6173820;23;20010;-90
2023/01/04 02:20:40;;;;;;;8.10;5.47;;;;;;;6.92;100.00;101661.16;6152198;23;19998;-89
2023/01/04 02:23:43;;;;;;;5.78;5.15;;;;;;;6.94;100.00;101638.19;6151037;23;20005;-89
2023/01/04 02:26:20;;;;;;;6.25;5.50;;;;;;;6.96;100.00;101642.50;6152005;23;20005;-89
2023/01/04 02:29:16;;;;;;;6.32;5.47;;;;;;;6.99;100.00;101647.75;6152144;23;20072;-90
2023/01/04 02:31:53;;;;;;;7.55;6.05;;;;;;;7.05;100.00;101652.00;6150749;23;20072;-89
2023/01/04 02:34:25;;;;;;;9.13;5.55;;;;;;;6.98;100.00;101646.00;6151247;23;20012;-91
2023/01/04 02:36:57;;;;;;;9.50;5.53;;;;;;;7.10;100.00;101659.84;6151696;23;20088;-90
2023/01/04 02:39:32;;;;;;;7.80;5.95;;;;;;;7.12;100.00;101661.56;6150921;23;20013;-91
2023/01/04 02:42:23;;;;;;;5.80;5.30;;;;;;;7.08;100.00;101637.84;6153052;23;20090;-91
2023/01/04 02:44:56;;;;;;;7.07;5.10;;;;;;;7.10;100.00;101615.72;6152586;23;20626;-91
2023/01/04 02:50:29;;;;;;;6.00;5.07;;;;;;;7.16;100.00;101612.06;6151665;23;20040;-92
2023/01/04 02:53:15;;;;;;;5.50;4.95;;;;;;;7.12;100.00;101607.75;6152404;23;20009;-92
2023/01/04 02:55:47;;;;;;;6.45;4.88;;;;;;;7.22;100.00;101604.81;6150905;23;20009;-92
2023/01/04 02:58:36;;;;;;;5.72;4.88;;;;;;;7.24;100.00;101594.22;6125050;23;20010;-92
2023/01/04 03:07:32;;;;;;;5.63;5.15;;;;;;;7.23;100.00;101593.34;6149414;23;20028;-91
2023/01/04 03:10:14;;;;;;;5.20;4.80;;;;;;;7.29;100.00;101580.84;6149349;23;20009;-90
2023/01/04 03:12:51;;;;;;;5.22;4.72;;;;;;;7.25;100.00;101598.59;6121187;23;20343;-88
2023/01/04 03:15:30;;;;;;;5.22;4.72;;;;;;;7.29;100.00;101578.19;6148318;23;20010;-90
2023/01/04 03:18:06;;;;;;;6.10;5.50;;;;;;;7.27;100.00;101567.63;6148948;23;20055;-87
2023/01/04 03:20:31;;;;;;;5.60;5.10;;;;;;;7.22;100.00;101548.34;6147428;23;20016;-91
2023/01/04 03:37:21;;;;;;;5.95;5.45;;;;;;;7.30;100.00;101554.31;6148685;23;20024;-90
2023/01/04 03:49:06;;;;;;;7.60;6.90;;;;;;;7.46;100.00;101552.16;6148412;23;20023;-89
2023/01/04 03:51:36;;;;;;;7.78;7.10;;;;;;;7.45;100.00;101545.97;6147367;23;20029;-90
2023/01/04 03:54:09;;;;;;;7.88;7.18;;;;;;;7.44;100.00;101528.34;6147954;23;20089;-91
2023/01/04 03:56:37;;;;;;;7.90;7.30;;;;;;;7.51;100.00;101536.13;6147875;23;20619;-91
2023/01/04 03:59:04;;;;;;;8.15;7.35;;;;;;;7.53;100.00;101536.97;6148556;23;20320;-89
2023/01/04 04:01:30;;;;;;;8.68;7.78;;;;;;;7.45;100.00;101511.53;6147576;23;20402;-90
2023/01/04 04:09:23;;;;;;;8.27;7.43;;;;;;;7.52;100.00;101522.81;6147305;23;20383;-90
2023/01/04 04:11:48;;;;;;;8.18;7.45;;;;;;;7.54;100.00;101523.66;6146448;23;20029;-90
2023/01/04 04:14:14;;;;;;;8.25;7.55;;;;;;;7.53;100.00;101531.66;6121348;23;20486;-91
2023/01/04 04:16:39;;;;;;;7.97;7.20;;;;;;;7.55;100.00;101535.13;6148134;23;20009;-89
2023/01/04 04:19:05;;;;;;;7.85;7.15;;;;;;;7.55;100.00;101529.84;6148304;23;20063;-90
2023/01/04 04:21:30;;;;;;;8.48;7.68;;;;;;;7.52;100.00;101508.72;6120449;23;20005;-91
2023/01/04 04:23:56;;;;;;;9.20;8.38;;;;;;;7.55;100.00;101498.03;6148009;23;20047;-90
2023/01/04 04:26:22;;;;;;;9.35;8.43;;;;;;;7.57;100.00;101465.31;6153170;23;20624;-91
2023/01/04 04:28:48;;;;;;;10.07;9.07;;;;;;;7.58;100.00;101503.28;6151624;23;20001;-90
2023/01/04 04:31:13;;;;;;;12.05;9.20;;;;;;;7.61;100.00;101500.53;6153587;23;20024;-90
2023/01/04 04:33:39;;;;;;;11.32;10.20;;;;;;;7.67;100.00;101505.66;6162246;23;20012;-89
2023/01/04 04:36:05;;;;;;;11.05;9.90;;;;;;;7.66;100.00;101506.56;6171983;23;20017;-91
2023/01/04 04:38:30;;;;;;;11.27;10.18;;;;;;;7.65;100.00;101483.63;6150130;23;20062;-89
2023/01/04 04:43:40;;;;;;;13.00;11.82;;;;;;;7.71;100.00;101471.06;6149811;23;20071;-91
2023/01/04 04:46:05;;;;;;;12.63;11.43;;;;;;;7.73;100.00;101476.31;6152304;23;20005;-89
2023/01/04 04:48:31;;;;;;;11.95;10.75;;;;;;;7.75;100.00;101463.91;6127308;23;20069;-92
2023/01/04 04:50:56;;;;;;;12.23;11.13;;;;;;;7.67;100.00;101455.31;6149889;23;20032;-89
2023/01/04 04:53:21;;;;;;;14.05;12.65;;;;;;;7.78;100.00;101453.22;6124090;23;20036;-92
2023/01/04 04:55:50;;;;;;;13.45;12.15;;;;;;;7.77;100.00;101440.88;6149950;23;20084;-90
2023/01/04 04:58:15;;;;;;;13.63;12.32;;;;;;;7.79;100.00;101452.31;6150448;23;20005;-89
2023/01/04 05:00:41;;;;;;;14.15;12.65;;;;;;;7.84;100.00;101460.13;6151207;23;20013;-90
2023/01/04 05:03:06;;;;;;;13.85;12.30;;;;;;;7.88;100.00;101452.03;6152449;23;20305;-89
2023/01/04 05:05:31;;;;;;;13.98;12.57;;;;;;;7.89;100.00;101460.84;6151577;23;20009;-90
2023/01/04 05:07:56;;;;;;;13.43;12.13;;;;;;;7.93;100.00;101441.28;6127031;23;20423;-90
2023/01/04 05:10:22;;;;;;;13.18;11.90;;;;;;;7.93;100.00;101458.03;6150594;23;20013;-90
2023/01/04 05:12:59;;;;;;;12.48;11.27;;;;;;;7.97;100.00;101443.78;6152261;23;20454;-89
2023/01/04 05:15:32;;;;;;;12.57;11.30;;;;;;;7.95;100.00;101448.28;6152287;23;20016;-90
2023/01/04 05:17:57;;;;;;;13.68;10.90;;;;;;;8.02;100.00;101443.63;6154744;23;20048;-90
2023/01/04 05:20:22;;;;;;;12.23;10.85;;;;;;;8.02;100.00;101430.38;6156255;23;20005;-90
2023/01/04 05:22:48;;;;;;;11.85;10.70;;;;;;;7.97;100.00;101425.22;6163124;23;20010;-90
2023/01/04 05:25:13;;;;;;;11.93;10.15;;;;;;;8.11;100.00;101440.72;6160071;23;20416;-89
2023/01/04 05:27:39;;;;;;;11.70;10.50;;;;;;;8.13;100.00;101422.97;6151064;23;20148;-89
2023/01/04 05:32:49;;;;;;;11.15;9.90;;;;;;;8.16;100.00;101422.88;6147920;23;20494;-89
2023/01/04 05:35:14;;;;;;;11.15;9.65;;;;;;;8.21;100.00;101428.03;6147703;23;20013;-90
2023/01/04 05:37:40;;;;;;;10.93;9.77;;;;;;;8.21;100.00;101423.59;6148048;23;20013;-89
2023/01/04 05:40:06;;;;;;;11.88;9.27;;;;;;;8.26;100.00;101426.09;6148212;23;20001;-89
2023/01/04 05:42:31;;;;;;;11.02;9.00;;;;;;;8.27;100.00;101411.06;6148397;23;20453;-89
2023/01/04 05:44:58;;;;;;;10.15;9.25;;;;;;;8.29;100.00;101418.06;6149036;23;20347;-88
2023/01/04 05:47:24;;;;;;;10.43;9.35;;;;;;;8.30;100.00;101409.19;6148668;23;20008;-89
2023/01/04 05:49:50;;;;;;;10.02;9.13;;;;;;;8.31;100.00;101412.69;6149440;23;20056;-89
2023/01/04 05:52:16;;;;;;;13.63;10.00;;;;;;;8.26;100.00;101388.13;6147607;23;20012;-90
2023/01/04 05:54:41;;;;;;;11.98;10.23;;;;;;;8.28;100.00;101404.81;6148908;23;20002;-88
2023/01/04 05:57:07;;;;;;;12.60;10.70;;;;;;;8.34;100.00;101399.34;6149538;23;20006;-89
2023/01/04 05:59:32;;;;;;;12.63;10.85;;;;;;;8.28;100.00;101392.47;6149593;23;20019;-89
2023/01/04 06:01:57;;;;;;;11.98;10.70;;;;;;;8.33;100.00;101390.53;6150048;23;20005;-90
2023/01/04 06:04:23;;;;;;;10.93;9.93;;;;;;;8.31;100.00;101384.38;6124144;23;20029;-90
2023/01/04 06:06:48;;;;;;;10.93;9.77;;;;;;;8.27;100.00;101363.31;6123543;23;20009;-90
2023/01/04 06:09:13;;;;;;;12.23;10.00;;;;;;;8.42;100.00;101397.34;6147527;23;20013;-89
2023/01/04 06:11:39;;;;;;;9.73;8.70;;;;;;;8.38;100.00;101390.41;6148313;23;20028;-89
2023/01/04 06:14:04;;;;;;;13.05;8.20;;;;;;;8.41;100.00;101393.81;6123575;23;20012;-90
2023/01/04 06:16:29;;;;;;;8.73;7.82;;;;;;;8.45;100.00;101403.41;6122290;23;20100;-88
2023/01/04 06:18:55;;;;;;;9.75;7.32;;;;;;;8.43;100.00;101384.00;6149506;23;20002;-88
2023/01/04 06:21:20;;;;;;;11.23;7.78;;;;;;;8.39;100.00;101392.13;6148384;23;20009;-88
2023/01/04 06:23:46;;;;;;;8.80;7.47;;;;;;;8.55;100.00;101411.94;6150190;23;20005;-90
2023/01/04 06:26:12;;;;;;;7.78;6.53;;;;;;;8.51;100.00;101394.38;6151553;23;20416;-91
2023/01/04 06:28:37;;;;;;;9.55;7.35;;;;;;;8.50;100.00;101405.91;6150252;23;20446;-92
2023/01/04 06:31:07;;;;;;;10.57;7.15;;;;;;;8.52;100.00;101397.88;6149787;23;20033;-89
2023/01/04 06:33:33;;;;;;;10.40;7.45;;;;;;;8.43;100.00;101377.84;6149678;23;20084;-94
2023/01/04 06:35:59;;;;;;;8.30;7.50;;;;;;;8.57;100.00;101402.16;6150042;23;20078;-93
2023/01/04 06:38:25;;;;;;;11.55;8.30;;;;;;;8.57;100.00;101403.91;6147094;23;20010;-90
2023/01/04 06:40:51;;;;;;;11.48;8.98;;;;;;;8.52;100.00;101382.84;6147160;23;20394;-88
2023/01/04 06:43:17;;;;;;;11.02;8.45;;;;;;;8.60;100.00;101395.84;6122120;23;20001;-89
2023/01/04 06:45:42;;;;;;;11.10;8.75;;;;;;;8.51;100.00;101382.91;6122193;23;20012;-89
2023/01/04 06:48:07;;;;;;;9.15;8.25;;;;;;;8.52;100.00;101384.63;6162807;23;20040;-88
2023/01/04 06:50:33;;;;;;;9.68;8.68;;;;;;;8.57;100.00;101387.97;6164475;23;20472;-90
2023/01/04 06:52:58;;;;;;;10.40;9.38;;;;;;;8.57;100.00;101380.03;6162091;23;20002;-90
2023/01/04 06:55:24;;;;;;;10.73;8.90;;;;;;;8.54;100.00;101378.38;6145984;23;20064;-88
2023/01/04 06:57:49;;;;;;;9.60;8.60;;;;;;;8.60;100.00;101386.09;6173372;23;20008;-88
2023/01/04 07:00:15;;;;;;;9.48;8.50;;;;;;;8.53;100.00;101365.13;6171705;23;20004;-88
2023/01/04 07:02:40;;;;;;;10.40;8.35;;;;;;;8.60;100.00;101388.75;6151968;23;20001;-88
2023/01/04 07:05:05;;;;;;;8.77;7.95;;;;;;;8.57;100.00;101385.34;6152778;23;20443;-89
2023/01/04 07:07:32;;;;;;;8.57;7.78;;;;;;;8.66;100.00;101385.03;6152238;23;20084;-88
2023/01/04 07:09:57;;;;;;;10.05;7.30;;;;;;;8.63;100.00;101371.88;6154975;23;20033;-89
2023/01/04 07:12:22;;;;;;;7.82;7.10;;;;;;;8.68;100.00;101356.66;6150959;23;20001;-88
2023/01/04 07:14:48;;;;;;;7.65;6.95;;;;;;;8.67;100.00;101362.88;6150082;23;20002;-89
2023/01/04 07:17:13;;;;;;;8.25;6.90;;;;;;;8.66;100.00;101353.19;6150255;23;20028;-88
2023/01/04 07:19:38;;;;;;;7.68;6.57;;;;;;;8.66;100.00;101356.72;6148875;23;20036;-89
2023/01/04 07:22:04;;;;;;;8.90;6.57;;;;;;;8.73;100.00;101373.28;6149041;23;20059;-88
2023/01/04 07:24:29;;;;;;;7.10;6.10;;;;;;;8.75;100.00;101368.78;6122759;23;20005;-89
2023/01/04 07:26:54;;;;;;;7.53;5.97;;;;;;;8.77;100.00;101366.94;6149454;23;20018;-88
2023/01/04 07:29:21;;;;;;;6.35;5.20;;;;;;;8.73;100.00;101357.34;6147373;23;20009;-87
2023/01/04 07:31:48;;;;;;;6.40;4.85;;;;;;;8.75;100.00;101352.00;6148642;23;20040;-88
2023/01/04 07:34:15;;;;;;;5.45;4.43;;;;;;;8.78;100.00;101351.88;6150283;23;20007;-89
2023/01/04 07:36:40;;;;;;;7.70;5.10;;;;;;;8.78;100.00;101336.84;6148270;23;20375;-86
2023/01/04 07:39:09;;;;;;;7.63;4.20;;;;;;;8.81;100.00;101331.41;6148875;23;20009;-88
2023/01/04 07:41:36;;;;;;;7.00;4.40;;;;;;;8.80;100.00;101324.38;6147235;23;20025;-88
2023/01/04 07:44:01;;;;;;;6.05;3.75;;;;;;;8.79;100.00;101341.22;6149622;23;19997;-88
2023/01/04 07:46:27;;;;;;;4.93;3.42;;;;;;;8.85;100.00;101338.34;6123062;23;20016;-87
2023/01/04 07:48:52;;;;;;;5.82;3.42;;;;;;;8.88;100.00;101343.53;6148759;23;20114;-88
2023/01/04 07:51:17;;;;;;;5.53;3.13;;;;;;;8.90;100.00;101322.25;6146729;23;20016;-89
2023/01/04 07:53:43;;;;;;;6.38;3.30;;;;;;;8.90;100.00;101339.06;6120913;23;20049;-88
2023/01/04 07:56:08;;;;;;;4.70;2.88;;;;;;;8.91;100.00;101322.22;6148094;23;20006;-88
2023/01/04 07:58:33;;;;;;;4.95;3.10;;;;;;;8.94;100.00;101324.72;6145547;23;20020;-88
2023/01/04 08:01:13;;;;;;;7.05;3.03;;;;;;;8.90;100.00;101331.09;6147098;23;20001;-87
2023/01/04 08:03:40;;;;;;;7.75;3.25;;;;;;;8.92;100.00;101326.59;6146539;23;20005;-88
2023/01/04 08:06:08;;;;;;;8.27;3.10;;;;;;;8.99;100.00;101327.25;6147606;23;20313;-89
2023/01/04 08:08:33;;;;;;;4.80;2.97;;;;;;;9.02;100.00;101326.25;6147579;23;20020;-87
2023/01/04 08:11:18;;;;;;;5.88;3.38;;;;;;;8.95;100.00;101313.22;6146756;23;20002;-88
2023/01/04 08:13:44;;;;;;;10.13;3.78;;;;;;;8.98;100.00;101317.53;6145492;23;20009;-88
2023/01/04 08:16:40;;;;;;;8.68;4.30;;;;;;;8.97;100.00;101334.38;6146546;23;20032;-88
2023/01/04 08:19:07;;;;;;;5.53;2.88;;;;;;;9.03;100.00;101327.97;6128322;23;20013;-88
2023/01/04 08:21:34;;;;;;;5.65;3.00;;;;;;;9.04;100.00;101340.34;6145855;23;20035;-88
2023/01/04 08:24:01;;;;;;;4.40;3.00;;;;;;;9.03;100.00;101338.59;6148302;23;20080;-88
2023/01/04 08:26:27;;;;;;;4.93;3.05;;;;;;;9.06;100.00;101354.41;6146416;23;20016;-89
2023/01/04 08:28:53;;;;;;;5.13;3.00;;;;;;;9.07;100.00;101342.88;6119566;23;20021;-86
2023/01/04 08:31:28;;;;;;;5.88;2.90;;;;;;;9.12;100.00;101340.94;6145808;23;20327;-88
2023/01/04 08:33:55;;;;;;;3.80;2.83;;;;;;;9.05;100.00;101323.50;6120107;23;20412;-89
2023/01/04 08:36:23;;;;;;;6.07;2.80;;;;;;;9.05;100.00;101347.38;6145687;23;20084;-89
2023/01/04 08:38:50;;;;;;;5.97;3.20;;;;;;;9.09;100.00;101352.53;6146352;23;20006;-89
2023/01/04 08:41:17;;;;;;;6.45;3.42;;;;;;;9.03;100.00;101335.94;6143159;23;20021;-87
2023/01/04 08:43:42;;;;;;;5.95;2.78;;;;;;;9.09;100.00;101333.06;6145735;23;20002;-87
2023/01/04 08:46:08;;;;;;;4.63;2.88;;;;;;;9.13;100.00;101343.53;6142321;23;20010;-88
2023/01/04 08:48:34;;;;;;;7.80;3.17;;;;;;;9.14;100.00;101347.03;6147808;23;20005;-87
2023/01/04 08:51:09;;;;;;;4.93;2.90;;;;;;;9.20;100.00;101358.31;6151110;23;20032;-87
2023/01/04 08:53:34;;;;;;;8.43;2.90;;;;;;;9.20;100.00;101346.84;6146645;23;20010;-86
2023/01/04 08:56:01;;;;;;;6.68;2.78;;;;;;;9.20;100.00;101334.41;6147155;23;20012;-88
2023/01/04 08:58:28;;;;;;;3.83;2.30;;;;;;;9.30;100.00;101356.19;6152359;23;20009;-87
2023/01/04 09:01:05;;;;;;;7.00;2.75;;;;;;;9.24;100.00;101340.47;6156829;23;20009;-87
2023/01/04 09:03:30;;;;;;;5.15;2.58;;;;;;;9.29;100.00;101350.94;6159014;23;19989;-87
2023/01/04 09:06:06;;;;;;;4.20;2.17;;;;;;;9.37;100.00;101360.34;6160589;23;20009;-87
2023/01/04 09:08:32;;;;;;;6.57;2.60;;;;;;;9.38;100.00;101358.56;6133548;23;20009;-87
2023/01/04 09:11:03;;;;;;;4.47;2.53;;;;;;;9.44;100.00;101353.00;6135311;23;20013;-87
2023/01/04 09:13:29;;;;;;;5.38;2.13;;;;;;;9.47;100.00;101345.78;6169384;23;20013;-87
2023/01/04 09:15:54;;;;;;;3.70;2.38;;;;;;;9.53;100.00;101346.44;6171797;23;20025;-87
2023/01/04 09:18:19;;;;;;;5.07;1.98;;;;;;;9.54;100.00;101342.91;6158876;23;20006;-87
2023/01/04 09:20:44;;;;;;;4.85;2.00;;;;;;;9.52;100.00;101340.28;6146925;23;20002;-87
2023/01/04 09:23:10;;;;;;;4.35;2.00;;;;;;;9.58;100.00;101355.13;6149084;23;20029;-88
2023/01/04 09:25:38;;;;;;;4.07;1.90;;;;;;;9.59;100.00;101346.25;6147957;23;20049;-87
2023/01/04 09:28:03;;;;;;;5.65;1.95;;;;;;;9.55;100.00;101348.13;6148670;23;20056;-87
2023/01/04 09:30:30;;;;;;;5.95;2.00;;;;;;;9.59;100.00;101355.06;6120852;23;20366;-86
2023/01/04 09:32:55;;;;;;;4.07;1.90;;;;;;;9.60;100.00;101338.19;6120047;23;20091;-87
2023/01/04 09:35:21;;;;;;;4.78;2.42;;;;;;;9.62;100.00;101362.94;6121314;23;20037;-87
2023/01/04 09:37:46;;;;;;;4.53;2.10;;;;;;;9.65;100.00;101352.16;6147270;23;20737;-87
2023/01/04 09:40:21;;;;;;;6.55;2.47;;;;;;;9.68;100.00;101370.66;6119539;23;20068;-87
2023/01/04 09:42:48;;;;;;;3.95;2.40;;;;;;;9.58;100.00;101320.59;6144070;23;20041;-89
2023/01/04 09:45:21;;;;;;;5.35;3.15;;;;;;;9.74;100.00;101356.28;6120633;23;19998;-89
2023/01/04 09:48:18;;;;;;;3.38;2.70;;;;;;;9.72;100.00;101356.31;6148403;23;20060;-88
2023/01/04 09:50:49;;;;;;;6.05;3.30;;;;;;;9.71;100.00;101362.56;6121769;23;20522;-89
2023/01/04 09:53:23;;;;;;;6.72;3.70;;;;;;;9.72;100.00;101352.81;6148322;23;20041;-88
2023/01/04 09:55:55;;;;;;;7.22;3.28;;;;;;;9.65;100.00;101349.50;6148004;23;20423;-92
2023/01/04 09:58:40;;;;;;;9.00;3.45;;;;;;;9.67;100.00;101354.78;6148416;23;20005;-91
2023/01/04 10:01:13;;;;;;;7.65;3.72;;;;;;;9.71;100.00;101356.38;6148411;23;20064;-92
2023/01/04 10:03:40;;;;;;;;;;;;;;;9.62;100.00;101348.78;6150480;23;20005;-87
2023/01/04 10:06:11;;;;;;;6.22;3.65;;;;;;;9.65;100.00;101341.53;6151227;23;20307;-90
2023/01/04 10:08:37;;;;;;;5.95;3.70;;;;;;;9.61;100.00;101334.59;6150041;23;20044;-89
2023/01/04 10:11:32;;;;;;;6.38;4.28;;;;;;;9.70;100.00;101355.53;6151912;23;20001;-90
2023/01/04 10:14:13;;;;;;;5.07;3.78;;;;;;;9.70;100.00;101349.34;6123149;23;20041;-90
2023/01/04 10:16:42;;;;;;;5.22;3.60;;;;;;;9.70;100.00;101347.56;6120763;23;20033;-92
2023/01/04 10:19:33;;;;;;;6.65;3.90;;;;;;;9.68;100.00;101341.41;6148153;23;20009;-91
2023/01/04 10:22:05;;;;;;;8.00;3.72;;;;;;;9.69;100.00;101331.66;6149050;23;20029;-91
2023/01/04 10:24:56;;;;;;;7.57;3.25;;;;;;;9.72;100.00;101343.03;6147624;23;20431;-90
2023/01/04 10:27:33;;;;;;;8.00;4.30;;;;;;;9.61;100.00;101320.44;6148394;23;20104;-90
2023/01/04 10:30:43;;;;;;;7.35;3.90;;;;;;;9.74;100.00;101332.34;6124278;23;20009;-89
2023/01/04 10:33:12;;;;;;;6.93;4.00;;;;;;;9.75;100.00;101343.84;6108931;23;20006;-92
2023/01/04 10:35:39;;;;;;;6.32;3.33;;;;;;;9.74;100.00;101329.69;6150466;23;20002;-88
2023/01/04 10:38:18;;;;;;;5.15;3.72;;;;;;;9.70;100.00;101331.59;6120571;23;20044;-88
2023/01/04 10:40:46;;;;;;;7.22;3.95;;;;;;;9.70;100.00;101317.47;6120256;23;20016;-91
2023/01/04 10:43:33;;;;;;;11.70;4.50;;;;;;;9.75;100.00;101333.22;6147403;23;20005;-92
2023/01/04 10:46:04;;;;;;;7.53;3.90;;;;;;;9.76;100.00;101311.88;6148328;23;20006;-87
2023/01/04 10:48:47;;;;;;;9.50;4.20;;;;;;;9.79;100.00;101325.06;6147461;23;20001;-86
2023/01/04 10:51:19;;;;;;;9.60;4.38;;;;;;;9.79;100.00;101324.19;6149023;23;20005;-87
2023/01/04 10:53:56;;;;;;;8.70;4.40;;;;;;;9.72;100.00;101294.31;6149032;23;20649;-89
2023/01/04 10:56:28;;;;;;;8.02;3.92;;;;;;;9.80;100.00;101318.81;6147670;23;20045;-86
2023/01/04 10:59:09;;;;;;;7.63;4.05;;;;;;;9.76;100.00;101313.69;6147515;23;20005;-87
2023/01/04 11:01:49;;;;;;;7.40;3.95;;;;;;;9.82;100.00;101302.78;6145797;23;20076;-88
2023/01/04 11:04:27;;;;;;;7.95;4.32;;;;;;;9.84;100.00;101311.56;6146710;23;20012;-91
2023/01/04 11:07:01;;;;;;;5.70;3.83;;;;;;;9.81;100.00;101301.06;6146969;23;20444;-87
2023/01/04 11:09:43;;;;;;;5.90;3.83;;;;;;;9.78;100.00;101303.84;6143491;23;20020;-87
2023/01/04 11:12:11;;;;;;;6.47;3.63;;;;;;;9.80;100.00;101291.34;6146785;23;20009;-87
2023/01/04 11:14:37;;;;;;;6.50;3.83;;;;;;;9.84;100.00;101309.78;6120024;23;20061;-87
2023/01/04 11:17:06;;;;;;;5.18;3.55;;;;;;;9.83;100.00;101300.09;6147054;23;20006;-89
2023/01/04 11:19:33;;;;;;;4.65;3.22;;;;;;;9.81;100.00;101301.91;6119196;23;20564;-87
2023/01/04 11:22:04;;;;;;;5.03;3.10;;;;;;;9.87;100.00;101312.31;6145536;23;20002;-89
2023/01/04 11:24:31;;;;;;;5.03;2.80;;;;;;;9.73;100.00;101282.75;6146854;23;20013;-88
2023/01/04 11:27:03;;;;;;;3.95;2.55;;;;;;;9.88;100.00;101308.72;6135273;23;20005;-85
2023/01/04 11:29:39;;;;;;;4.78;2.60;;;;;;;9.92;100.00;101318.31;6171682;23;20005;-88
2023/01/04 11:32:17;;;;;;;5.90;2.28;;;;;;;9.90;100.00;101336.09;6172754;23;20044;-89
2023/01/04 11:34:53;;;;;;;4.65;2.25;;;;;;;9.91;100.00;101303.28;6175256;23;20001;-89
2023/01/04 11:37:39;;;;;;;3.85;2.53;;;;;;;9.94;100.00;101305.81;6172420;23;20073;-89
2023/01/04 11:40:26;;;;;;;4.10;2.40;;;;;;;9.93;100.00;101317.38;6169335;23;20404;-88
2023/01/04 11:43:14;;;;;;;5.80;2.38;;;;;;;9.92;100.00;101313.00;6095331;23;20088;-89
2023/01/04 11:45:47;;;;;;;2.15;1.95;;;;;;;9.96;100.00;101301.31;6096568;23;20017;-87
2023/01/04 11:48:13;;;;;;;3.78;2.20;;;;;;;9.92;100.00;101297.03;6120509;23;20006;-87
2023/01/04 11:50:45;;;;;;;2.38;2.08;;;;;;;9.94;100.00;101305.81;6121433;23;20502;-89
2023/01/04 11:53:26;;;;;;;3.17;2.30;;;;;;;9.99;100.00;101297.66;6121182;23;20077;-86
2023/01/04 11:56:12;;;;;;;4.43;1.90;;;;;;;10.00;100.00;101323.31;6118322;23;20034;-86
2023/01/04 11:58:38;;;;;;;3.17;1.73;;;;;;;9.92;100.00;101302.38;6118735;23;20360;-88
2023/01/04 12:01:04;;;;;;;2.92;1.90;;;;;;;9.98;100.00;101302.09;6119769;23;20017;-87
2023/01/04 12:03:33;;;;;;;2.25;1.85;;;;;;;10.00;100.00;101320.66;6118517;23;20009;-89
2023/01/04 12:05:59;;;;;;;3.05;1.90;;;;;;;9.96;100.00;101306.63;6118543;23;20006;-90
2023/01/04 12:08:35;;;;;;;2.72;1.73;;;;;;;9.89;100.00;101305.13;6117685;23;20392;-88
2023/01/04 12:11:03;;;;;;;2.50;1.70;;;;;;;9.95;100.00;101291.59;6118997;23;20046;-90
2023/01/04 12:13:30;;;;;;;2.65;2.00;;;;;;;9.98;100.00;101303.88;6117255;23;20049;-88
2023/01/04 12:16:17;;;;;;;2.42;1.77;;;;;;;10.02;100.00;101317.94;6118320;23;20006;-88